Time;durP1;ratioP1;P1;durP2;ratioP2;P2;SDS_P1;SDS_P2;PMS_P1;PMS_P2;Temp;Humidity;BMP_temperature;BMP_pressure;BME280_temperature;BME280_humidity;BME280_pressure;Samples;Min_cycle;Max_cycle;Signal;HPM_P1;HPM_P2
2024/01/19 00:00:02;;;;;;;6.68;2.50;;;;;;;;;;4963856;28;92226;-83
2024/01/19 00:02:30;;;;;;;5.40;2.22;;;;;;;;;;4962165;28;92754;-82
2024/01/19 00:04:57;;;;;;;6.35;2.25;;;;;;;;;;4964516;28;93110;-84
2024/01/19 00:07:23;;;;;;;5.60;2.30;;;;;;;;;;4966047;28;91532;-84
2024/01/19 00:09:50;;;;;;;6.78;2.38;;;;;;;;;;4962786;28;95464;-83
2024/01/19 00:12:16;;;;;;;6.22;2.42;;;;;;;;;;4975910;28;92502;-83
2024/01/19 00:14:43;;;;;;;6.07;1.95;;;;;;;;;;4980695;28;95702;-84
2024/01/19 00:17:10;;;;;;;7.10;2.15;;;;;;;;;;4982664;28;93198;-87
2024/01/19 00:19:36;;;;;;;5.07;1.95;;;;;;;;;;4978564;28;92522;-84
2024/01/19 00:22:03;;;;;;;5.75;1.90;;;;;;;;;;4964600;28;92498;-86
2024/01/19 00:24:30;;;;;;;4.72;1.77;;;;;;;;;;4962882;28;92707;-85
2024/01/19 00:26:57;;;;;;;6.55;2.00;;;;;;;;;;4962654;28;92381;-84
2024/01/19 00:29:24;;;;;;;6.13;2.13;;;;;;;;;;4948461;28;93532;-86
2024/01/19 00:31:51;;;;;;;5.53;1.70;;;;;;;;;;4962075;28;91628;-86
2024/01/19 00:34:17;;;;;;;5.57;1.90;;;;;;;;;;4962267;28;92725;-82
2024/01/19 00:36:44;;;;;;;6.72;2.03;;;;;;;;;;4953778;28;95284;-82
2024/01/19 00:39:11;;;;;;;7.30;2.03;;;;;;;;;;4959715;28;94614;-82
2024/01/19 00:41:37;;;;;;;7.47;2.15;;;;;;;;;;4961585;28;95134;-82
2024/01/19 00:44:05;;;;;;;4.95;2.05;;;;;;;;;;4963775;28;93133;-81
2024/01/19 00:46:31;;;;;;;7.53;2.03;;;;;;;;;;4960650;28;92195;-81
2024/01/19 00:48:58;;;;;;;5.03;2.00;;;;;;;;;;4963011;28;93770;-83
2024/01/19 00:51:25;;;;;;;5.10;2.20;;;;;;;;;;4965764;28;92603;-80
2024/01/19 00:53:51;;;;;;;6.07;2.03;;;;;;;;;;4945818;28;92223;-80
2024/01/19 00:56:19;;;;;;;5.65;2.03;;;;;;;;;;4972682;28;93021;-80
2024/01/19 00:58:46;;;;;;;4.82;2.00;;;;;;;;;;4981319;28;92305;-80
2024/01/19 01:01:13;;;;;;;6.22;1.92;;;;;;;;;;4981774;28;92749;-80
2024/01/19 01:03:40;;;;;;;3.50;1.70;;;;;;;;;;4961619;28;94755;-80
2024/01/19 01:06:06;;;;;;;5.05;1.85;;;;;;;;;;4963375;28;92230;-80
2024/01/19 01:08:34;;;;;;;5.93;1.83;;;;;;;;;;4944985;28;95226;-80
2024/01/19 01:11:02;;;;;;;5.65;1.98;;;;;;;;;;4965219;28;92879;-80
2024/01/19 01:13:29;;;;;;;4.38;1.90;;;;;;;;;;4984958;28;92099;-81
2024/01/19 01:15:55;;;;;;;5.30;1.83;;;;;;;;;;4978053;28;92866;-80
2024/01/19 01:18:22;;;;;;;4.70;1.70;;;;;;;;;;4962942;28;92166;-82
2024/01/19 01:20:52;;;;;;;9.25;2.00;;;;;;;;;;4963221;28;96812;-82
2024/01/19 01:23:18;;;;;;;3.55;1.60;;;;;;;;;;4961556;28;92674;-81
2024/01/19 01:25:45;;;;;;;7.55;1.95;;;;;;;;;;4961750;28;92829;-80
2024/01/19 01:28:12;;;;;;;5.03;1.77;;;;;;;;;;4961566;28;94986;-81
2024/01/19 01:30:40;;;;;;;8.40;1.80;;;;;;;;;;4962307;28;92795;-81
2024/01/19 01:33:07;;;;;;;3.60;1.60;;;;;;;;;;4964583;28;92142;-81
2024/01/19 01:35:35;;;;;;;4.82;1.67;;;;;;;;;;4960956;28;95503;-81
2024/01/19 01:38:03;;;;;;;4.05;1.50;;;;;;;;;;4960907;28;92902;-82
2024/01/19 01:40:30;;;;;;;4.25;1.60;;;;;;;;;;4960664;28;92527;-82
2024/01/19 01:42:57;;;;;;;4.40;1.45;;;;;;;;;;4960640;28;94901;-81
2024/01/19 01:45:24;;;;;;;;;;;;;;;;;;4945012;28;91593;-81
2024/01/19 01:47:50;;;;;;;5.30;1.50;;;;;;;;;;4962229;28;113500;-81
2024/01/19 01:50:17;;;;;;;4.05;1.40;;;;;;;;;;4960581;28;95470;-80
2024/01/19 01:52:44;;;;;;;3.53;1.23;;;;;;;;;;4960265;28;94585;-79
2024/01/19 01:55:12;;;;;;;3.85;1.42;;;;;;;;;;4966183;28;94836;-80
2024/01/19 01:57:39;;;;;;;4.45;1.35;;;;;;;;;;4980437;28;92498;-80
2024/01/19 02:00:07;;;;;;;2.95;1.23;;;;;;;;;;4961086;28;94989;-81
2024/01/19 02:02:36;;;;;;;3.75;1.40;;;;;;;;;;4959696;28;95616;-80
2024/01/19 02:05:02;;;;;;;2.75;1.20;;;;;;;;;;4960664;28;92203;-81
2024/01/19 02:07:29;;;;;;;4.35;1.17;;;;;;;;;;4960915;28;95231;-80
2024/01/19 02:09:56;;;;;;;2.60;1.10;;;;;;;;;;4960780;28;94815;-81
2024/01/19 02:12:23;;;;;;;3.15;1.35;;;;;;;;;;4951560;28;92183;-81
2024/01/19 02:14:49;;;;;;;3.80;1.20;;;;;;;;;;4960793;28;97331;-81
2024/01/19 02:17:16;;;;;;;3.30;1.13;;;;;;;;;;4961802;28;95906;-81
2024/01/19 02:19:43;;;;;;;6.10;1.50;;;;;;;;;;4960591;28;97537;-80
2024/01/19 02:22:09;;;;;;;3.15;1.20;;;;;;;;;;4944122;28;95251;-80
2024/01/19 02:24:36;;;;;;;2.88;1.15;;;;;;;;;;4961362;28;92272;-80
2024/01/19 02:27:03;;;;;;;3.00;1.10;;;;;;;;;;4959552;28;95083;-80
2024/01/19 02:29:29;;;;;;;4.25;1.30;;;;;;;;;;4944426;28;94053;-80
2024/01/19 02:31:56;;;;;;;4.25;1.08;;;;;;;;;;4960322;28;92232;-79
2024/01/19 02:34:23;;;;;;;3.45;1.20;;;;;;;;;;4959401;28;95435;-80
2024/01/19 02:36:49;;;;;;;3.97;1.08;;;;;;;;;;4950552;28;97900;-79
2024/01/19 02:39:16;;;;;;;3.25;1.20;;;;;;;;;;4956994;28;92343;-81
2024/01/19 02:41:45;;;;;;;2.17;1.00;;;;;;;;;;4958436;28;97749;-81
2024/01/19 02:44:12;;;;;;;2.58;1.02;;;;;;;;;;4961218;28;92113;-81
2024/01/19 02:46:38;;;;;;;2.92;1.10;;;;;;;;;;4962056;28;92492;-81
2024/01/19 02:49:05;;;;;;;1.38;0.90;;;;;;;;;;4962749;28;92355;-80
2024/01/19 02:51:32;;;;;;;4.78;1.10;;;;;;;;;;4962265;28;92364;-81
2024/01/19 02:53:58;;;;;;;3.47;1.13;;;;;;;;;;4962827;28;93160;-81
2024/01/19 02:56:25;;;;;;;2.65;0.90;;;;;;;;;;4959468;28;93561;-81
2024/01/19 02:58:51;;;;;;;2.20;0.90;;;;;;;;;;4960428;28;91743;-81
2024/01/19 03:01:18;;;;;;;2.50;0.90;;;;;;;;;;4962724;28;92300;-81
2024/01/19 03:03:44;;;;;;;2.97;0.80;;;;;;;;;;4960282;28;92719;-82
2024/01/19 03:06:11;;;;;;;4.45;1.20;;;;;;;;;;4958275;28;94627;-81
2024/01/19 03:08:38;;;;;;;2.22;1.00;;;;;;;;;;4960539;28;93428;-82
2024/01/19 03:11:04;;;;;;;5.10;0.98;;;;;;;;;;4964873;28;92176;-81
2024/01/19 03:13:31;;;;;;;6.03;1.00;;;;;;;;;;4979319;28;94818;-82
2024/01/19 03:15:58;;;;;;;2.25;0.95;;;;;;;;;;4979228;28;93436;-80
2024/01/19 03:18:24;;;;;;;1.60;0.88;;;;;;;;;;4980412;28;92287;-80
2024/01/19 03:20:51;;;;;;;1.67;0.90;;;;;;;;;;4979613;28;92736;-80
2024/01/19 03:23:17;;;;;;;2.38;0.73;;;;;;;;;;4967552;28;91896;-82
2024/01/19 03:25:44;;;;;;;1.67;0.80;;;;;;;;;;4946513;28;92165;-81
2024/01/19 03:28:11;;;;;;;3.17;1.10;;;;;;;;;;4940314;28;93121;-81
2024/01/19 03:30:37;;;;;;;2.15;0.80;;;;;;;;;;4938998;28;94459;-82
2024/01/19 03:33:04;;;;;;;2.90;1.00;;;;;;;;;;4939949;28;96652;-81
2024/01/19 03:35:31;;;;;;;2.45;0.85;;;;;;;;;;4945801;28;92619;-82
2024/01/19 03:37:57;;;;;;;2.45;0.93;;;;;;;;;;4957318;28;92145;-82
2024/01/19 03:40:24;;;;;;;3.08;0.90;;;;;;;;;;4949936;28;94941;-80
2024/01/19 03:42:50;;;;;;;2.83;0.80;;;;;;;;;;4962313;28;92858;-79
2024/01/19 03:45:17;;;;;;;3.33;0.90;;;;;;;;;;4960771;28;92750;-79
2024/01/19 03:47:44;;;;;;;1.40;0.70;;;;;;;;;;4961203;28;92025;-80
2024/01/19 03:50:11;;;;;;;1.92;0.75;;;;;;;;;;4959291;28;92046;-81
2024/01/19 03:52:37;;;;;;;3.75;0.90;;;;;;;;;;4958744;28;92692;-81
2024/01/19 03:55:05;;;;;;;2.50;1.00;;;;;;;;;;4957761;28;95135;-80
2024/01/19 03:57:31;;;;;;;4.20;1.08;;;;;;;;;;4977914;28;92694;-81
2024/01/19 03:59:58;;;;;;;4.05;0.90;;;;;;;;;;4978875;28;92522;-81
2024/01/19 04:02:25;;;;;;;4.28;1.00;;;;;;;;;;4978232;28;95417;-81
2024/01/19 04:04:51;;;;;;;5.20;1.05;;;;;;;;;;4975807;28;92230;-84
2024/01/19 04:07:18;;;;;;;4.18;1.00;;;;;;;;;;4944064;28;94530;-81
2024/01/19 04:09:44;;;;;;;3.42;1.00;;;;;;;;;;4964513;28;92211;-81
2024/01/19 04:12:13;;;;;;;3.85;0.88;;;;;;;;;;4977042;28;92591;-81
2024/01/19 04:14:39;;;;;;;3.55;0.90;;;;;;;;;;4982113;28;95077;-81
2024/01/19 04:17:06;;;;;;;4.07;1.00;;;;;;;;;;4983784;28;92580;-81
2024/01/19 04:19:32;;;;;;;2.03;0.85;;;;;;;;;;4970729;28;94708;-82
2024/01/19 04:21:59;;;;;;;6.82;1.25;;;;;;;;;;4978602;28;95228;-82
2024/01/19 04:24:26;;;;;;;5.63;0.93;;;;;;;;;;4945842;28;92094;-80
2024/01/19 04:26:52;;;;;;;5.32;0.98;;;;;;;;;;4964525;28;95017;-81
2024/01/19 04:29:19;;;;;;;3.70;0.80;;;;;;;;;;4963959;28;92394;-81
2024/01/19 04:31:45;;;;;;;5.10;0.95;;;;;;;;;;4945788;28;92791;-80
2024/01/19 04:34:12;;;;;;;3.33;1.00;;;;;;;;;;4945279;28;94783;-80
2024/01/19 04:36:38;;;;;;;1.92;0.80;;;;;;;;;;4952452;28;91393;-81
2024/01/19 04:39:05;;;;;;;3.95;0.90;;;;;;;;;;4955789;28;92433;-80
2024/01/19 04:41:32;;;;;;;2.72;1.00;;;;;;;;;;4957950;28;92792;-79
2024/01/19 04:43:58;;;;;;;3.53;1.10;;;;;;;;;;4962538;28;94475;-80
2024/01/19 04:46:25;;;;;;;3.05;1.10;;;;;;;;;;4962578;28;95261;-81
2024/01/19 04:48:51;;;;;;;1.83;0.80;;;;;;;;;;4948617;28;95499;-80
2024/01/19 04:51:18;;;;;;;3.42;0.90;;;;;;;;;;4961800;28;94555;-80
2024/01/19 04:53:44;;;;;;;4.82;1.10;;;;;;;;;;4961800;28;94978;-80
2024/01/19 04:56:11;;;;;;;3.28;1.00;;;;;;;;;;4954809;28;92464;-79
2024/01/19 04:58:38;;;;;;;3.47;0.90;;;;;;;;;;4979846;28;95385;-80
2024/01/19 05:01:04;;;;;;;4.95;1.05;;;;;;;;;;4959868;28;91746;-79
2024/01/19 05:03:31;;;;;;;2.38;0.82;;;;;;;;;;4961442;28;92332;-80
2024/01/19 05:05:58;;;;;;;5.18;1.10;;;;;;;;;;4961612;28;94186;-81
2024/01/19 05:08:25;;;;;;;2.05;0.82;;;;;;;;;;4960590;28;95325;-80
2024/01/19 05:10:52;;;;;;;1.88;0.90;;;;;;;;;;4949990;28;92248;-81
2024/01/19 05:13:18;;;;;;;2.72;0.80;;;;;;;;;;4982263;28;92957;-80
2024/01/19 05:15:45;;;;;;;1.98;0.93;;;;;;;;;;4969864;28;93913;-80
2024/01/19 05:18:11;;;;;;;3.03;0.90;;;;;;;;;;4960648;28;92259;-81
2024/01/19 05:20:38;;;;;;;3.97;1.00;;;;;;;;;;4960494;28;94966;-80
2024/01/19 05:23:06;;;;;;;1.60;0.80;;;;;;;;;;4961524;28;92595;-80
2024/01/19 05:25:33;;;;;;;3.00;0.82;;;;;;;;;;4961565;28;94428;-79
2024/01/19 05:27:59;;;;;;;1.88;0.70;;;;;;;;;;4961330;28;94062;-81
2024/01/19 05:30:26;;;;;;;3.10;0.90;;;;;;;;;;4960054;28;92075;-80
2024/01/19 05:32:52;;;;;;;1.48;0.80;;;;;;;;;;4963762;28;94681;-80
2024/01/19 05:35:19;;;;;;;2.53;0.90;;;;;;;;;;4954559;28;92815;-79
2024/01/19 05:37:46;;;;;;;4.90;1.00;;;;;;;;;;4960972;28;92398;-80
2024/01/19 05:40:12;;;;;;;2.38;0.73;;;;;;;;;;4962203;28;93027;-79
2024/01/19 05:42:41;;;;;;;4.43;1.00;;;;;;;;;;4960694;28;92683;-80
2024/01/19 05:45:07;;;;;;;2.92;0.73;;;;;;;;;;4961626;28;92779;-80
2024/01/19 05:47:35;;;;;;;3.42;0.90;;;;;;;;;;4961336;28;93834;-81
2024/01/19 05:50:02;;;;;;;4.18;0.90;;;;;;;;;;4963667;28;91415;-82
2024/01/19 05:52:28;;;;;;;5.40;0.90;;;;;;;;;;4964081;28;92050;-81
2024/01/19 05:54:55;;;;;;;2.83;0.90;;;;;;;;;;4962693;28;92358;-81
2024/01/19 05:57:21;;;;;;;3.13;0.80;;;;;;;;;;4971633;28;94459;-81
2024/01/19 05:59:49;;;;;;;1.92;0.77;;;;;;;;;;4962128;28;100033;-81
2024/01/19 06:02:15;;;;;;;2.28;0.93;;;;;;;;;;4961007;28;92780;-80
2024/01/19 06:04:42;;;;;;;2.15;0.90;;;;;;;;;;4960358;28;94307;-81
2024/01/19 06:07:08;;;;;;;1.58;0.80;;;;;;;;;;4960821;28;92930;-80
2024/01/19 06:09:35;;;;;;;6.82;1.10;;;;;;;;;;4961311;28;92293;-81
2024/01/19 06:12:02;;;;;;;3.20;1.00;;;;;;;;;;4960032;28;94434;-81
2024/01/19 06:14:29;;;;;;;3.75;1.08;;;;;;;;;;4964038;28;92960;-80
2024/01/19 06:16:56;;;;;;;2.38;1.00;;;;;;;;;;4962310;28;92216;-79
2024/01/19 06:19:22;;;;;;;1.77;0.77;;;;;;;;;;4962010;28;92726;-80
2024/01/19 06:21:49;;;;;;;2.63;0.82;;;;;;;;;;4959124;28;94771;-80
2024/01/19 06:24:16;;;;;;;1.38;0.70;;;;;;;;;;4962761;28;95201;-80
2024/01/19 06:26:46;;;;;;;2.70;0.88;;;;;;;;;;4944326;28;95534;-79
2024/01/19 06:29:13;;;;;;;2.80;0.90;;;;;;;;;;4961255;28;92510;-80
2024/01/19 06:31:46;;;;;;;2.25;1.10;;;;;;;;;;4961597;28;92906;-80
2024/01/19 06:34:13;;;;;;;1.95;0.80;;;;;;;;;;4940661;28;95177;-80
2024/01/19 06:36:43;;;;;;;2.38;0.90;;;;;;;;;;4936572;28;92256;-80
2024/01/19 06:39:11;;;;;;;2.40;0.90;;;;;;;;;;4961773;28;92054;-81
2024/01/19 06:41:37;;;;;;;;;;;;;;;;;;4944363;28;92266;-80
2024/01/19 06:44:05;;;;;;;3.65;1.15;;;;;;;;;;4963843;28;111703;-81
2024/01/19 06:46:31;;;;;;;2.63;1.00;;;;;;;;;;4957904;28;95156;-80
2024/01/19 06:48:58;;;;;;;2.80;0.93;;;;;;;;;;4961908;28;92051;-81
2024/01/19 06:51:28;;;;;;;2.35;0.90;;;;;;;;;;4961173;28;92184;-81
2024/01/19 06:53:56;;;;;;;2.28;0.93;;;;;;;;;;4960970;28;92586;-81
2024/01/19 06:56:23;;;;;;;3.28;1.00;;;;;;;;;;4970578;28;92428;-81
2024/01/19 06:58:49;;;;;;;3.88;1.00;;;;;;;;;;4965788;28;99323;-80
2024/01/19 07:01:16;;;;;;;4.05;1.17;;;;;;;;;;4981052;28;92187;-80
2024/01/19 07:03:42;;;;;;;3.80;1.30;;;;;;;;;;4980101;28;94656;-80
2024/01/19 07:06:09;;;;;;;3.78;1.60;;;;;;;;;;4980890;28;93045;-80
2024/01/19 07:08:36;;;;;;;4.63;1.40;;;;;;;;;;4966632;28;92635;-81
2024/01/19 07:11:03;;;;;;;3.92;1.30;;;;;;;;;;4961809;28;94791;-81
2024/01/19 07:13:29;;;;;;;5.43;1.80;;;;;;;;;;4980418;28;92374;-81
2024/01/19 07:15:56;;;;;;;5.25;1.63;;;;;;;;;;4981054;28;92028;-80
2024/01/19 07:18:22;;;;;;;4.32;1.70;;;;;;;;;;4980586;28;92295;-79
2024/01/19 07:20:49;;;;;;;4.05;1.60;;;;;;;;;;4951383;28;95007;-80
2024/01/19 07:23:15;;;;;;;4.40;1.73;;;;;;;;;;4961028;28;92686;-81
2024/01/19 07:25:42;;;;;;;5.20;1.90;;;;;;;;;;4961290;28;92593;-81
2024/01/19 07:28:08;;;;;;;4.95;1.92;;;;;;;;;;4961799;28;91519;-81
2024/01/19 07:30:38;;;;;;;4.88;1.80;;;;;;;;;;4961285;28;92652;-80
2024/01/19 07:33:04;;;;;;;4.50;1.60;;;;;;;;;;4943288;28;95441;-80
2024/01/19 07:35:39;;;;;;;;;;;;;;;;;;4954076;28;94850;-80
2024/01/19 07:38:05;;;;;;;4.13;1.40;;;;;;;;;;4960907;28;108636;-80
2024/01/19 07:40:33;;;;;;;3.50;1.63;;;;;;;;;;4958765;28;92923;-81
2024/01/19 07:42:59;;;;;;;5.03;1.52;;;;;;;;;;4965118;28;92701;-82
2024/01/19 07:45:26;;;;;;;4.30;1.65;;;;;;;;;;4964198;28;92833;-82
2024/01/19 07:47:52;;;;;;;8.52;1.60;;;;;;;;;;4963284;28;92766;-81
2024/01/19 07:50:19;;;;;;;6.47;1.80;;;;;;;;;;4964186;28;92171;-82
2024/01/19 07:52:45;;;;;;;5.53;1.70;;;;;;;;;;4964092;28;92025;-82
2024/01/19 07:55:12;;;;;;;7.03;1.80;;;;;;;;;;4963764;28;92110;-82
2024/01/19 07:57:38;;;;;;;5.22;1.50;;;;;;;;;;4982398;28;92984;-82
2024/01/19 08:00:06;;;;;;;6.05;1.50;;;;;;;;;;4980552;28;95610;-83
2024/01/19 08:02:32;;;;;;;4.68;1.55;;;;;;;;;;4984741;28;92357;-83
2024/01/19 08:04:59;;;;;;;5.50;1.33;;;;;;;;;;4968762;28;93298;-83
2024/01/19 08:07:26;;;;;;;4.45;1.52;;;;;;;;;;4962702;28;92700;-82
2024/01/19 08:09:52;;;;;;;5.00;1.48;;;;;;;;;;4962035;28;92175;-84
2024/01/19 08:12:19;;;;;;;4.72;1.70;;;;;;;;;;4959542;28;95636;-83
2024/01/19 08:14:46;;;;;;;4.53;1.70;;;;;;;;;;4982963;28;92179;-84
2024/01/19 08:17:12;;;;;;;5.53;1.70;;;;;;;;;;4966301;28;94983;-83
2024/01/19 08:19:39;;;;;;;4.70;1.42;;;;;;;;;;4962381;28;96124;-84
2024/01/19 08:22:06;;;;;;;8.25;1.88;;;;;;;;;;4963823;28;92749;-85
2024/01/19 08:24:35;;;;;;;6.45;1.85;;;;;;;;;;4964234;28;94511;-86
2024/01/19 08:27:02;;;;;;;8.13;1.65;;;;;;;;;;4959368;28;92475;-87
2024/01/19 08:29:28;;;;;;;4.63;1.42;;;;;;;;;;4946146;28;92543;-87
2024/01/19 08:31:55;;;;;;;3.50;1.45;;;;;;;;;;4950268;28;92937;-87
2024/01/19 08:34:22;;;;;;;5.57;1.80;;;;;;;;;;4978992;28;92452;-87
2024/01/19 08:36:49;;;;;;;4.10;1.48;;;;;;;;;;4941499;28;99068;-87
2024/01/19 08:39:15;;;;;;;6.03;1.80;;;;;;;;;;4964643;28;92150;-88
2024/01/19 08:41:42;;;;;;;4.53;1.77;;;;;;;;;;4962668;28;91592;-86
2024/01/19 08:44:10;;;;;;;4.32;1.73;;;;;;;;;;4964818;28;92152;-86
2024/01/19 08:46:36;;;;;;;;;;;;;;;;;;4965166;28;95302;-86
2024/01/19 08:49:03;;;;;;;3.30;1.67;;;;;;;;;;4963392;28;94574;-86
2024/01/19 08:51:29;;;;;;;4.68;1.60;;;;;;;;;;4962720;28;92980;-87
2024/01/19 08:53:56;;;;;;;3.88;1.55;;;;;;;;;;4960773;28;92253;-83
2024/01/19 08:56:23;;;;;;;4.63;1.80;;;;;;;;;;4967274;28;94622;-86
2024/01/19 08:58:49;;;;;;;4.63;1.70;;;;;;;;;;4971051;28;99895;-85
2024/01/19 09:01:19;;;;;;;7.78;1.85;;;;;;;;;;4966879;28;91945;-88
2024/01/19 09:03:45;;;;;;;5.05;1.80;;;;;;;;;;4962378;28;92489;-88
2024/01/19 09:06:12;;;;;;;4.95;1.75;;;;;;;;;;4977785;28;92378;-83
2024/01/19 09:08:42;;;;;;;6.07;1.60;;;;;;;;;;4968049;28;92607;-82
2024/01/19 09:11:09;;;;;;;3.78;1.50;;;;;;;;;;4981775;28;95388;-82
2024/01/19 09:13:38;;;;;;;5.30;1.63;;;;;;;;;;4963474;28;95352;-83
2024/01/19 09:16:08;;;;;;;4.30;1.50;;;;;;;;;;4944364;28;95355;-84
2024/01/19 09:18:36;;;;;;;3.95;1.63;;;;;;;;;;4942509;28;95153;-86
2024/01/19 09:21:03;;;;;;;3.38;1.40;;;;;;;;;;4949490;28;92111;-84
2024/01/19 09:23:29;;;;;;;3.03;1.48;;;;;;;;;;4962249;28;95268;-84
2024/01/19 09:25:56;;;;;;;5.03;1.60;;;;;;;;;;4963537;28;92673;-85
2024/01/19 09:28:23;;;;;;;5.03;1.83;;;;;;;;;;4961792;28;92453;-85
2024/01/19 09:30:49;;;;;;;4.97;1.50;;;;;;;;;;4975281;28;96926;-85
2024/01/19 09:33:16;;;;;;;3.92;1.58;;;;;;;;;;4967348;28;92160;-86
2024/01/19 09:35:43;;;;;;;3.35;1.30;;;;;;;;;;4962680;28;92378;-85
2024/01/19 09:38:09;;;;;;;5.95;1.40;;;;;;;;;;4960520;28;97410;-87
2024/01/19 09:40:39;;;;;;;4.00;1.58;;;;;;;;;;4941962;28;92726;-87
2024/01/19 09:43:07;;;;;;;4.38;1.33;;;;;;;;;;4945661;28;95283;-85
2024/01/19 09:45:47;;;;;;;3.85;1.40;;;;;;;;;;4962452;28;92820;-84
2024/01/19 09:48:27;;;;;;;3.67;1.52;;;;;;;;;;4975467;28;100359;-83
2024/01/19 09:50:55;;;;;;;4.35;1.60;;;;;;;;;;4961399;28;96729;-84
2024/01/19 09:53:26;;;;;;;3.50;1.38;;;;;;;;;;4943107;28;92060;-84
2024/01/19 09:55:53;;;;;;;3.42;1.38;;;;;;;;;;4956445;28;92396;-86
2024/01/19 09:58:20;;;;;;;;;;;;;;;;;;4973533;28;94624;-84
2024/01/19 10:00:48;;;;;;;3.45;1.40;;;;;;;;;;4962226;28;92323;-85
2024/01/19 10:03:16;;;;;;;3.08;1.38;;;;;;;;;;4961615;28;94786;-86
2024/01/19 10:05:43;;;;;;;3.40;1.30;;;;;;;;;;4962346;28;93080;-86
2024/01/19 10:08:12;;;;;;;3.38;1.20;;;;;;;;;;4963633;28;92180;-84
2024/01/19 10:10:44;;;;;;;4.43;1.40;;;;;;;;;;4963813;28;92782;-85
2024/01/19 10:13:11;;;;;;;2.95;1.23;;;;;;;;;;4985145;28;95336;-86
2024/01/19 10:15:38;;;;;;;3.20;1.38;;;;;;;;;;4977058;28;92422;-85
2024/01/19 10:18:05;;;;;;;6.13;1.40;;;;;;;;;;4959531;28;94760;-87
2024/01/19 10:20:32;;;;;;;5.07;1.42;;;;;;;;;;4942405;28;92025;-87
2024/01/19 10:23:19;;;;;;;3.28;1.40;;;;;;;;;;4960461;28;92422;-86
2024/01/19 10:25:45;;;;;;;2.40;1.10;;;;;;;;;;4966441;28;94915;-80
2024/01/19 10:28:28;;;;;;;4.10;1.30;;;;;;;;;;4959407;28;94411;-83
2024/01/19 10:31:11;;;;;;;5.15;1.33;;;;;;;;;;4962696;28;99650;-84
2024/01/19 10:33:46;;;;;;;3.83;1.30;;;;;;;;;;4960368;28;93807;-84
2024/01/19 10:36:13;;;;;;;5.53;1.20;;;;;;;;;;4952872;28;92386;-84
2024/01/19 10:38:40;;;;;;;3.60;1.05;;;;;;;;;;4950416;28;92652;-83
2024/01/19 10:41:16;;;;;;;2.88;1.00;;;;;;;;;;4961336;28;92346;-88
2024/01/19 10:43:43;;;;;;;3.30;1.20;;;;;;;;;;4963246;28;92706;-88
2024/01/19 10:46:28;;;;;;;3.63;1.30;;;;;;;;;;4963586;28;92926;-86
2024/01/19 10:49:02;;;;;;;4.15;1.20;;;;;;;;;;4962059;28;92557;-87
2024/01/19 10:51:30;;;;;;;3.28;1.10;;;;;;;;;;4962330;28;92076;-89
2024/01/19 10:54:00;;;;;;;2.13;1.00;;;;;;;;;;4943509;28;97187;-86
2024/01/19 10:56:27;;;;;;;4.05;1.10;;;;;;;;;;4971283;28;92216;-85
2024/01/19 10:58:54;;;;;;;5.60;1.30;;;;;;;;;;4983650;28;94928;-85
2024/01/19 11:01:22;;;;;;;3.58;1.17;;;;;;;;;;4980608;28;92167;-84
2024/01/19 11:03:49;;;;;;;2.03;1.02;;;;;;;;;;4980661;28;92532;-85
2024/01/19 11:06:17;;;;;;;3.10;1.20;;;;;;;;;;4949319;28;95005;-82
2024/01/19 11:08:44;;;;;;;3.17;1.17;;;;;;;;;;4942181;28;92174;-84
2024/01/19 11:11:11;;;;;;;4.00;1.08;;;;;;;;;;4965717;28;92388;-83
2024/01/19 11:13:42;;;;;;;2.03;1.02;;;;;;;;;;4970263;28;92740;-86
2024/01/19 11:16:11;;;;;;;3.67;1.10;;;;;;;;;;4961015;28;92123;-85
2024/01/19 11:18:38;;;;;;;2.97;1.10;;;;;;;;;;4958715;28;94906;-89
2024/01/19 11:21:05;;;;;;;;;;;;;;;;;;4965547;28;95690;-88
2024/01/19 11:23:33;;;;;;;5.13;1.35;;;;;;;;;;4963900;28;103739;-89
2024/01/19 11:26:18;;;;;;;3.17;1.02;;;;;;;;;;4962523;28;93114;-89
2024/01/19 11:28:44;;;;;;;;;;;;;;;;;;4946296;28;92111;-88
2024/01/19 11:31:19;;;;;;;3.50;1.10;;;;;;;;;;4945538;28;94576;-90
2024/01/19 11:33:45;;;;;;;3.22;1.30;;;;;;;;;;4959060;28;95768;-89
2024/01/19 11:36:32;;;;;;;4.43;1.40;;;;;;;;;;4954155;28;91439;-88
2024/01/19 11:38:59;;;;;;;2.47;1.20;;;;;;;;;;4971795;28;98764;-88
2024/01/19 11:41:25;;;;;;;;;;;;;;;;;;4961605;28;92891;-84
2024/01/19 11:43:52;;;;;;;3.15;1.15;;;;;;;;;;4945422;28;94483;-85
2024/01/19 11:46:39;;;;;;;3.92;1.20;;;;;;;;;;4958062;28;95570;-85
2024/01/19 11:49:05;;;;;;;3.78;1.20;;;;;;;;;;4943057;28;93678;-85
2024/01/19 11:51:33;;;;;;;2.50;1.08;;;;;;;;;;4959310;28;92538;-86
2024/01/19 11:54:01;;;;;;;3.60;1.20;;;;;;;;;;4942500;28;96152;-85
2024/01/19 11:56:28;;;;;;;3.33;1.33;;;;;;;;;;4968719;28;100299;-85
2024/01/19 11:58:55;;;;;;;3.05;1.20;;;;;;;;;;4979003;28;95706;-84
2024/01/19 12:01:22;;;;;;;3.67;1.30;;;;;;;;;;4980577;28;92048;-83
2024/01/19 12:03:52;;;;;;;3.63;1.20;;;;;;;;;;4969330;28;92985;-84
2024/01/19 12:06:19;;;;;;;4.10;1.30;;;;;;;;;;4939724;28;95714;-85
2024/01/19 12:08:59;;;;;;;2.22;1.10;;;;;;;;;;4953904;28;94966;-85
2024/01/19 12:11:26;;;;;;;3.00;1.20;;;;;;;;;;4958951;28;96582;-86
2024/01/19 12:13:53;;;;;;;4.43;1.33;;;;;;;;;;4960713;28;92738;-85
2024/01/19 12:16:31;;;;;;;2.85;1.20;;;;;;;;;;4958681;28;92738;-86
2024/01/19 12:18:57;;;;;;;;;;;;;;;;;;4944984;28;94767;-85
2024/01/19 12:21:24;;;;;;;5.43;1.40;;;;;;;;;;4961713;28;115617;-86
2024/01/19 12:23:52;;;;;;;5.60;1.33;;;;;;;;;;4960432;28;92432;-85
2024/01/19 12:26:19;;;;;;;2.88;1.30;;;;;;;;;;4946781;28;95201;-85
2024/01/19 12:28:48;;;;;;;5.75;1.27;;;;;;;;;;4961625;28;92256;-85
2024/01/19 12:31:24;;;;;;;3.85;1.30;;;;;;;;;;4962568;28;92425;-83
2024/01/19 12:33:52;;;;;;;4.60;1.40;;;;;;;;;;4962190;28;95325;-86
2024/01/19 12:36:21;;;;;;;2.15;1.10;;;;;;;;;;4946493;28;94413;-86
2024/01/19 12:38:59;;;;;;;4.30;1.10;;;;;;;;;;4952283;28;92695;-86
2024/01/19 12:41:26;;;;;;;5.22;1.17;;;;;;;;;;4962535;28;95280;-89
2024/01/19 12:43:52;;;;;;;4.75;1.40;;;;;;;;;;4947343;28;92138;-88
2024/01/19 12:46:23;;;;;;;5.65;1.40;;;;;;;;;;4964473;28;92499;-87
2024/01/19 12:48:57;;;;;;;6.35;1.48;;;;;;;;;;4966126;28;97534;-87
2024/01/19 12:51:25;;;;;;;5.95;1.33;;;;;;;;;;4964754;28;92469;-87
2024/01/19 12:53:55;;;;;;;5.18;1.20;;;;;;;;;;4963109;28;92714;-89
2024/01/19 12:56:25;;;;;;;7.68;1.30;;;;;;;;;;4946799;28;92104;-87
2024/01/19 12:58:53;;;;;;;7.25;1.48;;;;;;;;;;4945026;28;97976;-85
2024/01/19 13:01:20;;;;;;;4.45;1.30;;;;;;;;;;4961884;28;92288;-85
2024/01/19 13:03:47;;;;;;;3.92;1.30;;;;;;;;;;4960971;28;92275;-86
2024/01/19 13:06:14;;;;;;;4.68;1.20;;;;;;;;;;4944201;28;95089;-85
2024/01/19 13:08:40;;;;;;;5.20;1.30;;;;;;;;;;4973459;28;93004;-87
2024/01/19 13:11:07;;;;;;;3.95;1.30;;;;;;;;;;4976990;28;92244;-86
2024/01/19 13:13:35;;;;;;;3.83;1.13;;;;;;;;;;4959768;28;92884;-87
2024/01/19 13:16:07;;;;;;;3.92;1.27;;;;;;;;;;4960652;28;92052;-86
2024/01/19 13:18:37;;;;;;;4.63;1.50;;;;;;;;;;4959122;28;94091;-86
2024/01/19 13:21:11;;;;;;;4.38;1.25;;;;;;;;;;4961118;28;93304;-86
2024/01/19 13:23:37;;;;;;;3.67;1.38;;;;;;;;;;4958953;28;94924;-86
2024/01/19 13:26:04;;;;;;;3.95;1.30;;;;;;;;;;4960860;28;95306;-85
2024/01/19 13:28:31;;;;;;;10.65;1.20;;;;;;;;;;4961987;28;92758;-86
2024/01/19 13:30:57;;;;;;;5.22;1.40;;;;;;;;;;4945807;28;92401;-86
2024/01/19 13:33:24;;;;;;;5.22;1.30;;;;;;;;;;4964990;28;92525;-86
2024/01/19 13:35:51;;;;;;;4.15;1.20;;;;;;;;;;4956109;28;92497;-87
2024/01/19 13:38:17;;;;;;;3.88;1.17;;;;;;;;;;4960389;28;95710;-85
2024/01/19 13:40:49;;;;;;;2.92;1.13;;;;;;;;;;4960959;28;96284;-86
2024/01/19 13:43:16;;;;;;;4.22;1.33;;;;;;;;;;4960280;28;92636;-87
2024/01/19 13:45:42;;;;;;;4.20;1.38;;;;;;;;;;4963278;28;92365;-85
2024/01/19 13:48:09;;;;;;;2.53;1.05;;;;;;;;;;4961197;28;94797;-87
2024/01/19 13:50:35;;;;;;;4.05;1.25;;;;;;;;;;4944411;28;92993;-86
2024/01/19 13:53:02;;;;;;;3.42;1.20;;;;;;;;;;4963388;28;92907;-86
2024/01/19 13:55:29;;;;;;;2.00;1.10;;;;;;;;;;4968637;28;93246;-86
2024/01/19 13:57:56;;;;;;;3.15;1.33;;;;;;;;;;4981720;28;94800;-85
2024/01/19 14:00:22;;;;;;;3.58;1.25;;;;;;;;;;4983055;28;92742;-86
2024/01/19 14:02:50;;;;;;;2.80;1.20;;;;;;;;;;4972112;28;92218;-87
2024/01/19 14:05:17;;;;;;;3.72;1.30;;;;;;;;;;4962691;28;92473;-87
2024/01/19 14:07:44;;;;;;;4.55;1.30;;;;;;;;;;4951760;28;95099;-86
2024/01/19 14:10:11;;;;;;;3.30;1.30;;;;;;;;;;4969273;28;93377;-86
2024/01/19 14:12:37;;;;;;;3.53;1.30;;;;;;;;;;4958699;28;94686;-85
2024/01/19 14:15:04;;;;;;;3.40;1.10;;;;;;;;;;4964764;28;93284;-86
2024/01/19 14:17:31;;;;;;;3.40;1.15;;;;;;;;;;4961876;28;92449;-85
2024/01/19 14:19:58;;;;;;;3.08;1.20;;;;;;;;;;4962118;28;93089;-86
2024/01/19 14:22:25;;;;;;;2.97;1.13;;;;;;;;;;4960466;28;92243;-85
2024/01/19 14:24:51;;;;;;;3.22;1.20;;;;;;;;;;4961389;28;94674;-87
2024/01/19 14:27:24;;;;;;;3.47;1.23;;;;;;;;;;4963350;28;92839;-86
2024/01/19 14:29:51;;;;;;;4.95;1.38;;;;;;;;;;4963963;28;91789;-87
2024/01/19 14:32:18;;;;;;;4.43;1.30;;;;;;;;;;4944250;28;93760;-86
2024/01/19 14:34:45;;;;;;;3.97;1.38;;;;;;;;;;4955494;28;95496;-86
2024/01/19 14:37:18;;;;;;;2.83;1.20;;;;;;;;;;4960450;28;95207;-86
2024/01/19 14:39:45;;;;;;;3.40;1.20;;;;;;;;;;4962778;28;95636;-84
2024/01/19 14:42:11;;;;;;;3.58;1.30;;;;;;;;;;4963754;28;92082;-85
2024/01/19 14:44:38;;;;;;;4.00;1.40;;;;;;;;;;4961364;28;95285;-83
2024/01/19 14:47:05;;;;;;;3.40;1.33;;;;;;;;;;4961897;28;93309;-85